Albion, ME

12:59 AM EDT on October 01, 2014 (GMT -0400)
Bangor International | Change Station
CLOSE
Current Station
Airport
Location: Bangor,
Elevation: 190 ft
Nearby Weather Stations

Elev 190 ft 44.80 °N, 68.82 °W | Updated 13 minutes ago

Overcast
Overcast
50 °F
Feels Like 50 °F
N
8
Wind Variable Wind from NNE

Today
High -- | Low -- °F
--% Chance of Precip.
Yesterday
High -- | Low -- °F
Precip. -- in
6:35 AM 6:18 PM
Waxing Crescent, 43% visible
Pressure 30.10 in
Visibility 7.0 miles
Clouds Mostly Cloudy 800 ft
Overcast 1500 ft
Dew Point 48 °F
Humidity 93%
Rainfall 0.00 in
Snow Depth Not available.
UV 0 out of 12
Pollen .30 out of 12
Ozone Good
Flu Activity Not available.
METAR KBGR 300446Z 02007KT 7SM -DZ BKN008 OVC015 10/09 A3010 RMK AO2 CIG 005V010 P0000 T01000089

More Conditions Fewer Conditions

Pressure 30.10 in
Visibility 7.0 miles
Clouds Mostly Cloudy 800 ft
Overcast 1500 ft
Dew Point 48 °F
Humidity 93%
Rainfall 0.00 in
Snow Depth Not available.
UV 0 out of 12
Pollen .30 out of 12
Ozone Good
Flu Activity Not available.
METAR KBGR 300446Z 02007KT 7SM -DZ BKN008 OVC015 10/09 A3010 RMK AO2 CIG 005V010 P0000 T01000089

More Conditions Fewer Conditions

10-Day Weather Forecast

Almanac

Astronomy

Oct. 01, 2014 Rise Set
Actual Time 6:35 AM EDT 6:18 PM EDT
Civil Twilight 6:06 AM EDT 6:47 PM EDT
Nautical Twilight 5:32 AM EDT 7:21 PM EDT
Astronomical Twilight 4:58 AM EDT 7:55 PM EDT
Moon 1:44 PM EDT 11:37 PM EDT
Length of Visible Light 12h 40m
Length of Day
11h 42m
Tomorrow will be 3m 4s shorter.
Waxing Crescent, 43% of the Moon is Illuminated
Today
Waxing Crescent
Oct 1
First Quarter
Oct 8
Full
Oct 15
Last Quarter
Oct 23
New

Today's Extremes

State Highs State Lows

Community

WunderPhotos

Upload Photos

1,757,847 photos uploaded!

Nearby

Air Quality

  Air Quality AQ Index Pollutant
Yesterday Good
OZONE
Current Good
OZONE
Tuesday Good
OZONE
Tuesday Good
PM2.5
Wednesday Good
OZONE
Wednesday Good
PM2.5
Thursday Good
OZONE
Thursday Good
PM2.5
Friday Good
OZONE
Friday Good
PM2.5
Saturday Good
OZONE
Saturday Good
PM2.5

Snow Depth

Station Depth Elevation
No new snow has been reported.

Earthquake Activity

City Distance Mag. Time & Date
No recent earthquake activity has been reported nearby.
Minimum magnitude displayed is 2.5.

Coastal Water Temperatures

Place Temperature
Bar Harbor, ME 55.9 °F
Portland, ME 57.9 °F

Nearby Weather Stations